JST567 YBBN-YMML
Flight info
| Callsign | JST567 |
|---|---|
| Flight time | N/A |
| Altitude | 36000 |
| Route | SANEG Q35 DORSU H119 ARBEY |
| Aircraft | A320/M-SDE3FGHIRWY/LB1 |
Departure
| Time | 2026-04-28 05:44 |
|---|---|
| Airport | Brisbane International Airport (YBBN) |
Arrival
| Time | N/A |
|---|---|
| Airport | Melbourne Airport (YMML) |
| Time | Latitude | Longitude | Altitude | Speed | Heading |
|---|---|---|---|---|---|
| 2026-04-28 05:15 | -27.38328 | 153.12281 | 18 ft | 0 kts | 289° |
| 2026-04-28 05:22 | -27.38328 | 153.12282 | 18 ft | 0 kts | 289° |
| 2026-04-28 05:32 | -27.38329 | 153.12285 | 18 ft | 3 kts | 289° |
| 2026-04-28 05:32 | -27.38339 | 153.12313 | 20 ft | 4 kts | 292° |
| 2026-04-28 05:32 | -27.38347 | 153.12342 | 18 ft | 4 kts | 279° |
| 2026-04-28 05:33 | -27.38351 | 153.12371 | 21 ft | 4 kts | 284° |
| 2026-04-28 05:33 | -27.38361 | 153.12399 | 20 ft | 4 kts | 311° |
| 2026-04-28 05:33 | -27.38379 | 153.12412 | 20 ft | 1 kts | 351° |
| 2026-04-28 05:33 | -27.38384 | 153.12413 | 18 ft | 3 kts | 351° |
| 2026-04-28 05:36 | -27.38375 | 153.12411 | 21 ft | 3 kts | 350° |
| 2026-04-28 05:36 | -27.38361 | 153.12408 | 20 ft | 4 kts | 349° |
| 2026-04-28 05:37 | -27.38329 | 153.12402 | 18 ft | 6 kts | 349° |
| 2026-04-28 05:37 | -27.38286 | 153.12413 | 19 ft | 7 kts | 38° |
| 2026-04-28 05:37 | -27.38281 | 153.12470 | 20 ft | 9 kts | 107° |
| 2026-04-28 05:37 | -27.38313 | 153.12537 | 18 ft | 11 kts | 126° |
| 2026-04-28 05:38 | -27.38368 | 153.12602 | 20 ft | 11 kts | 132° |
| 2026-04-28 05:38 | -27.38380 | 153.12670 | 19 ft | 9 kts | 64° |
| 2026-04-28 05:38 | -27.38378 | 153.12675 | 20 ft | 9 kts | 62° |
| 2026-04-28 05:39 | -27.38328 | 153.12711 | 20 ft | 10 kts | 26° |
| 2026-04-28 05:39 | -27.38259 | 153.12752 | 19 ft | 12 kts | 29° |
| 2026-04-28 05:39 | -27.38177 | 153.12795 | 19 ft | 14 kts | 25° |
| 2026-04-28 05:39 | -27.38083 | 153.12848 | 18 ft | 16 kts | 24° |
| 2026-04-28 05:40 | -27.37981 | 153.12909 | 18 ft | 18 kts | 26° |
| 2026-04-28 05:40 | -27.37867 | 153.12975 | 18 ft | 19 kts | 27° |
| 2026-04-28 05:40 | -27.37743 | 153.13047 | 20 ft | 21 kts | 27° |
| 2026-04-28 05:40 | -27.37607 | 153.13123 | 19 ft | 23 kts | 26° |
| 2026-04-28 05:41 | -27.37462 | 153.13206 | 19 ft | 24 kts | 28° |
| 2026-04-28 05:41 | -27.37356 | 153.13265 | 18 ft | 10 kts | 25° |
| 2026-04-28 05:41 | -27.37320 | 153.13320 | 18 ft | 10 kts | 89° |
| 2026-04-28 05:41 | -27.37349 | 153.13390 | 19 ft | 10 kts | 136° |
| 2026-04-28 05:42 | -27.37410 | 153.13428 | 21 ft | 10 kts | 162° |
| 2026-04-28 05:42 | -27.37477 | 153.13427 | 22 ft | 10 kts | 199° |
| 2026-04-28 05:42 | -27.37512 | 153.13405 | 22 ft | 1 kts | 209° |
| 2026-04-28 05:42 | -27.37523 | 153.13397 | 23 ft | 3 kts | 209° |
| 2026-04-28 05:43 | -27.37553 | 153.13379 | 23 ft | 9 kts | 209° |
| 2026-04-28 05:43 | -27.37787 | 153.13248 | 21 ft | 71 kts | 207° |
| 2026-04-28 05:43 | -27.38404 | 153.12895 | 23 ft | 125 kts | 207° |
| 2026-04-28 05:43 | -27.39300 | 153.12385 | 28 ft | 166 kts | 211° |
| 2026-04-28 05:44 | -27.40344 | 153.11799 | 552 ft | 168 kts | 204° |
| 2026-04-28 05:44 | -27.41391 | 153.11193 | 1148 ft | 170 kts | 204° |
| 2026-04-28 05:44 | -27.42479 | 153.10748 | 1757 ft | 165 kts | 173° |
| 2026-04-28 05:44 | -27.43586 | 153.11169 | 2080 ft | 179 kts | 147° |
| 2026-04-28 05:45 | -27.44729 | 153.11909 | 2302 ft | 201 kts | 149° |
| 2026-04-28 05:45 | -27.46002 | 153.12709 | 2746 ft | 215 kts | 149° |
| 2026-04-28 05:45 | -27.47311 | 153.13520 | 3598 ft | 214 kts | 151° |
| 2026-04-28 05:45 | -27.48622 | 153.14320 | 4389 ft | 215 kts | 152° |
| 2026-04-28 05:46 | -27.50079 | 153.14766 | 5104 ft | 223 kts | 175° |
| 2026-04-28 05:46 | -27.51687 | 153.14517 | 5466 ft | 249 kts | 189° |
| 2026-04-28 05:46 | -27.53422 | 153.14086 | 6062 ft | 260 kts | 190° |
| 2026-04-28 05:46 | -27.55209 | 153.13626 | 6809 ft | 266 kts | 190° |
| 2026-04-28 05:47 | -27.56992 | 153.12972 | 7552 ft | 272 kts | 197° |
| 2026-04-28 05:47 | -27.58793 | 153.12248 | 8271 ft | 277 kts | 197° |
| 2026-04-28 05:47 | -27.60626 | 153.11520 | 9014 ft | 282 kts | 196° |
| 2026-04-28 05:47 | -27.62495 | 153.10798 | 9741 ft | 286 kts | 195° |
| 2026-04-28 05:48 | -27.63765 | 153.10353 | 10204 ft | 289 kts | 193° |
| 2026-04-28 05:48 | -27.66461 | 153.09470 | 10569 ft | 316 kts | 193° |
| 2026-04-28 05:48 | -27.68612 | 153.08775 | 10824 ft | 333 kts | 194° |
| 2026-04-28 05:48 | -27.70867 | 153.08043 | 11388 ft | 339 kts | 194° |
| 2026-04-28 05:49 | -27.73153 | 153.07290 | 12008 ft | 344 kts | 194° |
| 2026-04-28 05:49 | -27.75459 | 153.06522 | 12630 ft | 347 kts | 194° |
| 2026-04-28 05:49 | -27.77795 | 153.05741 | 13259 ft | 351 kts | 194° |
| 2026-04-28 05:49 | -27.80138 | 153.04950 | 13883 ft | 354 kts | 196° |
| 2026-04-28 05:50 | -27.82393 | 153.03837 | 14416 ft | 360 kts | 207° |
| 2026-04-28 05:50 | -27.84487 | 153.02256 | 14958 ft | 365 kts | 213° |
| 2026-04-28 05:50 | -27.86570 | 153.00584 | 15511 ft | 367 kts | 213° |
| 2026-04-28 05:50 | -27.88665 | 152.98909 | 16071 ft | 371 kts | 213° |
| 2026-04-28 05:51 | -27.90775 | 152.97222 | 16617 ft | 373 kts | 213° |
| 2026-04-28 05:51 | -27.92909 | 152.95515 | 17155 ft | 377 kts | 213° |
| 2026-04-28 05:51 | -27.93804 | 152.94801 | 17385 ft | 378 kts | 213° |
| 2026-04-28 05:53 | -27.95330 | 152.93521 | 17649 ft | 383 kts | 217° |
| 2026-04-28 05:53 | -27.96765 | 152.92333 | 17775 ft | 386 kts | 214° |
| 2026-04-28 05:53 | -27.99658 | 152.90019 | 18615 ft | 386 kts | 213° |
| 2026-04-28 05:53 | -28.01873 | 152.88278 | 19116 ft | 388 kts | 213° |
| 2026-04-28 05:54 | -28.04100 | 152.86530 | 19611 ft | 390 kts | 213° |
| 2026-04-28 05:54 | -28.06333 | 152.84767 | 20122 ft | 392 kts | 212° |
| 2026-04-28 05:54 | -28.08574 | 152.82985 | 20607 ft | 395 kts | 213° |
| 2026-04-28 05:54 | -28.10823 | 152.81187 | 21108 ft | 396 kts | 213° |
| 2026-04-28 05:55 | -28.13076 | 152.79379 | 21579 ft | 398 kts | 213° |
| 2026-04-28 05:55 | -28.15318 | 152.77573 | 22036 ft | 400 kts | 213° |
| 2026-04-28 05:55 | -28.17595 | 152.75737 | 22504 ft | 402 kts | 214° |
| 2026-04-28 05:55 | -28.19882 | 152.73892 | 22949 ft | 404 kts | 214° |
| 2026-04-28 05:56 | -28.22182 | 152.72040 | 23398 ft | 406 kts | 213° |
| 2026-04-28 05:56 | -28.24493 | 152.70187 | 23828 ft | 408 kts | 213° |
| 2026-04-28 05:56 | -28.26816 | 152.68326 | 24188 ft | 410 kts | 214° |
| 2026-04-28 05:56 | -28.27744 | 152.67583 | 24338 ft | 411 kts | 214° |
| 2026-04-28 05:57 | -28.27910 | 152.67449 | 24352 ft | 411 kts | 215° |
| 2026-04-28 05:57 | -28.28707 | 152.66794 | 24368 ft | 415 kts | 214° |
| 2026-04-28 05:58 | -28.30449 | 152.65394 | 24690 ft | 413 kts | 213° |
| 2026-04-28 05:58 | -28.32801 | 152.63504 | 25071 ft | 415 kts | 213° |
| 2026-04-28 05:58 | -28.35162 | 152.61603 | 25423 ft | 417 kts | 214° |
| 2026-04-28 05:59 | -28.37528 | 152.59690 | 25773 ft | 418 kts | 214° |
| 2026-04-28 05:59 | -28.39908 | 152.57769 | 26103 ft | 420 kts | 214° |
| 2026-04-28 05:59 | -28.42296 | 152.55843 | 26452 ft | 422 kts | 213° |
| 2026-04-28 05:59 | -28.44694 | 152.53904 | 26806 ft | 423 kts | 213° |
| 2026-04-28 06:00 | -28.47095 | 152.51962 | 27127 ft | 425 kts | 213° |
| 2026-04-28 06:00 | -28.49511 | 152.50004 | 27476 ft | 427 kts | 214° |
| 2026-04-28 06:00 | -28.51934 | 152.48037 | 27802 ft | 428 kts | 213° |
| 2026-04-28 06:00 | -28.54367 | 152.46061 | 28140 ft | 431 kts | 213° |
| 2026-04-28 06:01 | -28.56782 | 152.44099 | 28442 ft | 433 kts | 214° |
| 2026-04-28 06:01 | -28.59237 | 152.42103 | 28754 ft | 435 kts | 214° |
| 2026-04-28 06:01 | -28.61712 | 152.40096 | 29079 ft | 437 kts | 214° |
| 2026-04-28 06:01 | -28.64193 | 152.38084 | 29426 ft | 439 kts | 214° |
| 2026-04-28 06:02 | -28.66682 | 152.36062 | 29794 ft | 440 kts | 214° |
| 2026-04-28 06:02 | -28.69173 | 152.34035 | 30274 ft | 438 kts | 214° |
| 2026-04-28 06:02 | -28.71646 | 152.32024 | 30692 ft | 436 kts | 214° |
| 2026-04-28 06:02 | -28.73280 | 152.30695 | 30942 ft | 436 kts | 214° |
| 2026-04-28 06:03 | -28.75738 | 152.28692 | 31355 ft | 434 kts | 214° |
| 2026-04-28 06:03 | -28.78189 | 152.26692 | 31744 ft | 432 kts | 215° |
| 2026-04-28 06:03 | -28.80632 | 152.24703 | 32139 ft | 431 kts | 215° |
| 2026-04-28 06:03 | -28.83076 | 152.22713 | 32532 ft | 430 kts | 216° |
| 2026-04-28 06:04 | -28.85507 | 152.20727 | 32902 ft | 430 kts | 216° |
| 2026-04-28 06:04 | -28.88728 | 152.18094 | 33384 ft | 429 kts | 216° |
| 2026-04-28 06:04 | -28.91141 | 152.16120 | 33816 ft | 427 kts | 216° |
| 2026-04-28 06:04 | -28.92776 | 152.14783 | 34056 ft | 427 kts | 216° |
| 2026-04-28 06:05 | -28.95188 | 152.12812 | 34401 ft | 426 kts | 216° |
| 2026-04-28 06:05 | -28.97566 | 152.10866 | 34740 ft | 424 kts | 216° |
| 2026-04-28 06:05 | -28.99963 | 152.08897 | 35031 ft | 424 kts | 216° |
| 2026-04-28 06:05 | -29.00430 | 152.08515 | 35077 ft | 424 kts | 216° |
| 2026-04-28 06:09 | -29.04485 | 152.05028 | 35275 ft | 426 kts | 217° |
| 2026-04-28 06:10 | -29.06888 | 152.03061 | 35565 ft | 425 kts | 216° |
| 2026-04-28 06:10 | -29.09307 | 152.01123 | 35871 ft | 424 kts | 215° |
| 2026-04-28 06:10 | -29.11692 | 151.99216 | 36147 ft | 423 kts | 216° |
| 2026-04-28 06:10 | -29.14104 | 151.97269 | 36256 ft | 425 kts | 216° |
| 2026-04-28 06:11 | -29.18975 | 151.93292 | 36270 ft | 432 kts | 216° |
| 2026-04-28 06:11 | -29.23852 | 151.89273 | 36269 ft | 431 kts | 215° |
| 2026-04-28 06:12 | -29.28714 | 151.85246 | 36273 ft | 431 kts | 216° |
| 2026-04-28 06:12 | -29.33544 | 151.81243 | 36273 ft | 431 kts | 216° |
| 2026-04-28 06:13 | -29.38408 | 151.77220 | 36265 ft | 430 kts | 216° |
| 2026-04-28 06:13 | -29.43273 | 151.73198 | 36269 ft | 431 kts | 215° |
| 2026-04-28 06:14 | -29.48129 | 151.69164 | 36274 ft | 431 kts | 215° |
| 2026-04-28 06:14 | -29.53064 | 151.65335 | 36268 ft | 430 kts | 209° |
| 2026-04-28 06:15 | -29.58282 | 151.61963 | 36268 ft | 430 kts | 209° |
| 2026-04-28 06:15 | -29.63493 | 151.58586 | 36292 ft | 430 kts | 208° |
| 2026-04-28 06:16 | -29.68706 | 151.55205 | 36291 ft | 430 kts | 208° |
| 2026-04-28 06:16 | -29.73908 | 151.51823 | 36291 ft | 429 kts | 208° |
| 2026-04-28 06:17 | -29.79066 | 151.48460 | 36276 ft | 429 kts | 208° |
| 2026-04-28 06:18 | -29.86854 | 151.43375 | 36289 ft | 428 kts | 208° |
| 2026-04-28 06:18 | -29.92036 | 151.39989 | 36282 ft | 427 kts | 208° |
| 2026-04-28 06:19 | -29.97207 | 151.36605 | 36275 ft | 427 kts | 208° |
| 2026-04-28 06:19 | -30.02375 | 151.33221 | 36259 ft | 427 kts | 208° |
| 2026-04-28 06:20 | -30.07495 | 151.29869 | 36274 ft | 425 kts | 208° |
| 2026-04-28 06:20 | -30.12632 | 151.26492 | 36286 ft | 424 kts | 208° |
| 2026-04-28 06:21 | -30.17753 | 151.23126 | 36275 ft | 423 kts | 208° |
| 2026-04-28 06:21 | -30.22860 | 151.19765 | 36267 ft | 422 kts | 208° |
| 2026-04-28 06:22 | -30.27968 | 151.16400 | 36276 ft | 422 kts | 207° |
| 2026-04-28 06:22 | -30.33064 | 151.13041 | 36275 ft | 421 kts | 207° |
| 2026-04-28 06:23 | -30.38150 | 151.09685 | 36270 ft | 420 kts | 207° |
| 2026-04-28 06:23 | -30.43200 | 151.06351 | 36258 ft | 420 kts | 207° |
| 2026-04-28 06:24 | -30.48276 | 151.02991 | 36252 ft | 419 kts | 207° |
| 2026-04-28 06:24 | -30.53340 | 150.99633 | 36267 ft | 418 kts | 206° |
| 2026-04-28 06:25 | -30.58378 | 150.96294 | 36267 ft | 416 kts | 206° |
| 2026-04-28 06:25 | -30.63373 | 150.92977 | 36267 ft | 415 kts | 206° |
| 2026-04-28 06:26 | -30.68388 | 150.89638 | 36267 ft | 415 kts | 206° |
| 2026-04-28 06:26 | -30.73403 | 150.86298 | 36259 ft | 415 kts | 206° |
| 2026-04-28 06:27 | -30.78407 | 150.82968 | 36267 ft | 414 kts | 206° |
| 2026-04-28 06:27 | -30.83404 | 150.79626 | 36261 ft | 414 kts | 206° |
| 2026-04-28 06:28 | -30.88396 | 150.76288 | 36255 ft | 414 kts | 206° |
| 2026-04-28 06:28 | -30.93390 | 150.72941 | 36236 ft | 413 kts | 206° |
| 2026-04-28 06:29 | -30.98341 | 150.69620 | 36250 ft | 413 kts | 206° |
| 2026-04-28 06:29 | -31.03322 | 150.66283 | 36253 ft | 413 kts | 206° |
| 2026-04-28 06:30 | -31.08089 | 150.62518 | 36253 ft | 418 kts | 218° |
| 2026-04-28 06:30 | -31.12424 | 150.57996 | 36248 ft | 418 kts | 217° |
| 2026-04-28 06:31 | -31.16778 | 150.53470 | 36244 ft | 418 kts | 217° |
| 2026-04-28 06:31 | -31.21125 | 150.48950 | 36248 ft | 418 kts | 217° |
| 2026-04-28 06:32 | -31.25473 | 150.44423 | 36233 ft | 418 kts | 218° |
| 2026-04-28 06:32 | -31.29794 | 150.39910 | 36240 ft | 419 kts | 218° |
| 2026-04-28 06:33 | -31.34139 | 150.35361 | 36242 ft | 419 kts | 218° |
| 2026-04-28 06:33 | -31.38485 | 150.30809 | 36247 ft | 419 kts | 218° |
| 2026-04-28 06:34 | -31.42838 | 150.26256 | 36252 ft | 420 kts | 218° |
| 2026-04-28 06:34 | -31.47187 | 150.21690 | 36260 ft | 420 kts | 218° |
| 2026-04-28 06:35 | -31.51506 | 150.17148 | 36249 ft | 420 kts | 218° |
| 2026-04-28 06:35 | -31.55853 | 150.12565 | 36256 ft | 420 kts | 218° |
| 2026-04-28 06:36 | -31.60234 | 150.07941 | 36275 ft | 421 kts | 218° |
| 2026-04-28 06:36 | -31.64567 | 150.03381 | 36282 ft | 421 kts | 218° |
| 2026-04-28 06:37 | -31.68918 | 149.98780 | 36287 ft | 421 kts | 218° |
| 2026-04-28 06:37 | -31.73268 | 149.94169 | 36275 ft | 421 kts | 218° |
| 2026-04-28 06:38 | -31.77621 | 149.89560 | 36277 ft | 421 kts | 218° |
| 2026-04-28 06:38 | -31.81973 | 149.84943 | 36271 ft | 421 kts | 218° |
| 2026-04-28 06:39 | -31.86276 | 149.80259 | 36272 ft | 422 kts | 221° |
| 2026-04-28 06:39 | -31.90382 | 149.75300 | 36276 ft | 423 kts | 223° |
| 2026-04-28 06:40 | -31.94400 | 149.70291 | 36277 ft | 423 kts | 223° |
| 2026-04-28 06:40 | -31.98488 | 149.65286 | 36281 ft | 423 kts | 222° |
| 2026-04-28 06:41 | -32.02605 | 149.60328 | 36281 ft | 423 kts | 221° |
| 2026-04-28 06:41 | -32.06691 | 149.55399 | 36266 ft | 423 kts | 222° |
| 2026-04-28 06:42 | -32.10788 | 149.50414 | 36274 ft | 423 kts | 222° |
| 2026-04-28 06:42 | -32.14878 | 149.45427 | 36274 ft | 423 kts | 222° |
| 2026-04-28 06:43 | -32.18977 | 149.40442 | 36274 ft | 423 kts | 222° |
| 2026-04-28 06:43 | -32.23074 | 149.35451 | 36275 ft | 423 kts | 222° |
| 2026-04-28 06:44 | -32.27160 | 149.30446 | 36277 ft | 423 kts | 222° |
| 2026-04-28 06:44 | -32.30973 | 149.25769 | 36272 ft | 423 kts | 222° |
| 2026-04-28 06:45 | -32.35027 | 149.20795 | 36277 ft | 422 kts | 222° |
| 2026-04-28 06:45 | -32.39120 | 149.15779 | 36278 ft | 423 kts | 222° |
| 2026-04-28 06:46 | -32.43200 | 149.10765 | 36280 ft | 423 kts | 222° |
| 2026-04-28 06:46 | -32.47283 | 149.05744 | 36285 ft | 423 kts | 222° |
| 2026-04-28 06:47 | -32.51346 | 149.00744 | 36265 ft | 423 kts | 222° |
| 2026-04-28 06:47 | -32.55418 | 148.95720 | 36279 ft | 423 kts | 222° |
| 2026-04-28 06:48 | -32.59492 | 148.90682 | 36281 ft | 423 kts | 222° |
| 2026-04-28 06:48 | -32.63564 | 148.85641 | 36286 ft | 423 kts | 222° |
| 2026-04-28 06:49 | -32.67629 | 148.80607 | 36287 ft | 422 kts | 222° |
| 2026-04-28 06:49 | -32.71692 | 148.75563 | 36270 ft | 422 kts | 222° |
| 2026-04-28 06:50 | -32.75723 | 148.70559 | 36281 ft | 422 kts | 222° |
| 2026-04-28 06:50 | -32.79775 | 148.65515 | 36279 ft | 422 kts | 221° |
| 2026-04-28 06:51 | -32.83822 | 148.60465 | 36284 ft | 421 kts | 221° |
| 2026-04-28 06:51 | -32.87873 | 148.55417 | 36286 ft | 421 kts | 221° |
| 2026-04-28 06:52 | -32.91914 | 148.50369 | 36286 ft | 421 kts | 221° |
| 2026-04-28 06:52 | -32.95949 | 148.45314 | 36274 ft | 421 kts | 221° |
| 2026-04-28 06:53 | -32.99959 | 148.40292 | 36282 ft | 421 kts | 221° |
| 2026-04-28 06:53 | -33.03993 | 148.35237 | 36286 ft | 421 kts | 221° |
| 2026-04-28 06:54 | -33.08025 | 148.30169 | 36287 ft | 421 kts | 221° |
| 2026-04-28 06:54 | -33.12051 | 148.25103 | 36275 ft | 421 kts | 221° |
| 2026-04-28 06:55 | -33.16476 | 148.20647 | 36284 ft | 415 kts | 213° |
| 2026-04-28 06:55 | -33.20276 | 148.17153 | 36272 ft | 415 kts | 213° |
| 2026-04-28 06:56 | -33.24848 | 148.12933 | 36274 ft | 415 kts | 213° |
| 2026-04-28 06:56 | -33.29411 | 148.08709 | 36278 ft | 415 kts | 214° |
| 2026-04-28 06:57 | -33.33974 | 148.04480 | 36283 ft | 415 kts | 213° |
| 2026-04-28 06:57 | -33.38537 | 148.00259 | 36280 ft | 415 kts | 213° |
| 2026-04-28 06:58 | -33.43099 | 147.96030 | 36287 ft | 415 kts | 214° |
| 2026-04-28 06:58 | -33.47660 | 147.91797 | 36266 ft | 415 kts | 214° |
| 2026-04-28 06:59 | -33.52220 | 147.87550 | 36280 ft | 415 kts | 214° |
| 2026-04-28 06:59 | -33.56750 | 147.83323 | 36290 ft | 415 kts | 214° |
| 2026-04-28 07:00 | -33.61309 | 147.79066 | 36287 ft | 415 kts | 214° |
| 2026-04-28 07:00 | -33.65869 | 147.74806 | 36288 ft | 415 kts | 214° |
| 2026-04-28 07:01 | -33.70428 | 147.70538 | 36289 ft | 415 kts | 214° |
| 2026-04-28 07:01 | -33.74948 | 147.66305 | 36286 ft | 415 kts | 214° |
| 2026-04-28 07:02 | -33.79497 | 147.62042 | 36276 ft | 415 kts | 214° |
| 2026-04-28 07:02 | -33.84054 | 147.57763 | 36280 ft | 415 kts | 214° |
| 2026-04-28 07:03 | -33.88600 | 147.53481 | 36284 ft | 415 kts | 214° |
| 2026-04-28 07:03 | -33.93152 | 147.49187 | 36287 ft | 416 kts | 214° |
| 2026-04-28 07:04 | -33.97705 | 147.44887 | 36287 ft | 416 kts | 214° |
| 2026-04-28 07:04 | -34.02260 | 147.40591 | 36280 ft | 416 kts | 215° |
| 2026-04-28 07:05 | -34.06785 | 147.36309 | 36276 ft | 416 kts | 215° |
| 2026-04-28 07:05 | -34.11341 | 147.31988 | 36281 ft | 417 kts | 215° |
| 2026-04-28 07:06 | -34.15901 | 147.27657 | 36284 ft | 417 kts | 215° |
| 2026-04-28 07:06 | -34.20463 | 147.23329 | 36283 ft | 417 kts | 216° |